createdAt,value
2023-05-13T00:00:43.033Z,2.30
2023-05-13T00:03:12.478Z,2.58
2023-05-13T00:05:41.750Z,2.42
2023-05-13T00:08:11.958Z,2.33
2023-05-13T00:10:40.252Z,2.10
2023-05-13T00:13:10.363Z,2.58
2023-05-13T00:15:40.354Z,2.50
2023-05-13T00:18:09.053Z,2.20
2023-05-13T00:20:37.755Z,2.53
2023-05-13T00:23:07.887Z,2.53
2023-05-13T00:25:36.584Z,2.80
2023-05-13T00:28:05.081Z,2.30
2023-05-13T00:30:35.279Z,2.70
2023-05-13T00:33:04.021Z,2.88
2023-05-13T00:35:32.770Z,2.72
2023-05-13T00:38:01.360Z,2.50
2023-05-13T00:40:29.982Z,2.60
2023-05-13T00:42:58.579Z,2.53
2023-05-13T00:45:28.490Z,2.40
2023-05-13T00:47:59.287Z,2.97
2023-05-13T00:50:28.215Z,2.57
2023-05-13T00:52:58.442Z,2.70
2023-05-13T00:55:27.480Z,2.72
2023-05-13T00:57:55.754Z,2.70
2023-05-13T01:00:24.454Z,2.70
2023-05-13T01:03:06.936Z,2.55
2023-05-13T01:05:46.380Z,2.70
2023-05-13T01:08:25.468Z,2.60
2023-05-13T01:11:02.498Z,2.90
2023-05-13T01:13:42.984Z,2.83
2023-05-13T01:16:17.029Z,2.90
2023-05-13T01:18:53.948Z,2.67
2023-05-13T01:21:27.756Z,2.80
2023-05-13T01:23:56.741Z,2.90
2023-05-13T01:26:26.929Z,3.10
2023-05-13T01:28:55.509Z,3.07
2023-05-13T01:31:26.455Z,3.03
2023-05-13T01:33:55.325Z,2.90
2023-05-13T01:36:25.945Z,2.83
2023-05-13T01:38:56.954Z,3.00
2023-05-13T01:41:26.462Z,2.93
2023-05-13T01:43:55.140Z,3.20
2023-05-13T01:46:24.242Z,3.00
2023-05-13T01:48:53.635Z,3.10
2023-05-13T01:51:22.491Z,3.00
2023-05-13T01:53:53.468Z,2.90
2023-05-13T01:56:22.468Z,3.53
2023-05-13T01:58:51.376Z,3.07
2023-05-13T02:01:22.472Z,3.50
2023-05-13T02:03:51.576Z,3.07
2023-05-13T02:06:21.586Z,3.73
2023-05-13T02:08:52.454Z,3.37
2023-05-13T02:11:21.917Z,3.80
2023-05-13T02:13:51.060Z,3.37
2023-05-13T02:16:20.976Z,3.40
2023-05-13T02:18:49.650Z,3.47
2023-05-13T02:21:18.363Z,3.77
2023-05-13T02:23:47.061Z,3.97
2023-05-13T02:26:16.756Z,3.77
2023-05-13T02:28:45.698Z,3.37
2023-05-13T02:31:15.611Z,3.60
2023-05-13T02:33:45.991Z,3.70
2023-05-13T02:36:15.135Z,3.30
2023-05-13T02:38:43.808Z,3.60
2023-05-13T02:41:13.694Z,3.10
2023-05-13T02:43:44.559Z,3.90
2023-05-13T02:46:13.235Z,3.30
2023-05-13T02:48:41.978Z,3.83
2023-05-13T02:51:10.973Z,3.60
2023-05-13T02:53:40.363Z,3.40
2023-05-13T02:56:10.821Z,3.90
2023-05-13T02:58:39.430Z,3.87
2023-05-13T03:01:09.996Z,3.90
2023-05-13T03:03:38.978Z,3.90
2023-05-13T03:06:08.401Z,4.20
2023-05-13T03:08:37.068Z,4.00
2023-05-13T03:11:06.477Z,3.90
2023-05-13T03:13:35.249Z,3.93
2023-05-13T03:16:04.026Z,3.67
2023-05-13T03:18:34.082Z,3.83
2023-05-13T03:21:03.132Z,4.20
2023-05-13T03:23:34.480Z,4.03
2023-05-13T03:26:03.641Z,4.13
2023-05-13T03:28:33.560Z,3.80
2023-05-13T03:31:03.347Z,4.20
2023-05-13T03:33:35.939Z,4.17
2023-05-13T03:36:06.044Z,4.40
2023-05-13T03:38:34.799Z,3.97
2023-05-13T03:41:04.022Z,4.10
2023-05-13T03:43:32.782Z,4.17
2023-05-13T03:46:04.642Z,4.23
2023-05-13T03:48:35.115Z,4.33
2023-05-13T03:51:04.892Z,3.97
2023-05-13T03:53:33.656Z,3.97
2023-05-13T03:56:02.937Z,4.33
2023-05-13T03:58:31.625Z,4.50
2023-05-13T04:01:00.375Z,4.17
2023-05-13T04:03:29.195Z,4.00
2023-05-13T04:05:59.383Z,4.10
2023-05-13T04:08:28.392Z,3.93
2023-05-13T04:10:57.550Z,4.13
2023-05-13T04:13:28.047Z,3.57
2023-05-13T04:15:56.825Z,4.10
2023-05-13T04:18:25.558Z,4.03
2023-05-13T04:20:54.364Z,4.00
2023-05-13T04:23:24.654Z,3.93
2023-05-13T04:25:53.793Z,4.10
2023-05-13T04:28:22.104Z,4.00
2023-05-13T04:30:52.755Z,4.07
2023-05-13T04:33:21.093Z,3.93
2023-05-13T04:35:51.081Z,4.40
2023-05-13T04:38:19.772Z,4.37
2023-05-13T04:40:50.229Z,4.23
2023-05-13T04:43:24.837Z,4.40
2023-05-13T04:45:57.705Z,3.70
2023-05-13T04:48:28.449Z,3.90
2023-05-13T04:50:59.391Z,4.07
2023-05-13T04:53:28.951Z,4.30
2023-05-13T04:56:02.320Z,4.30
2023-05-13T04:58:32.234Z,4.25
2023-05-13T05:01:00.900Z,4.47
2023-05-13T05:03:29.832Z,4.40
2023-05-13T05:06:00.366Z,4.40
2023-05-13T05:08:29.099Z,4.67
2023-05-13T05:11:00.595Z,4.33
2023-05-13T05:13:30.542Z,4.23
2023-05-13T05:15:59.144Z,4.47
2023-05-13T05:18:27.591Z,4.43
2023-05-13T05:20:56.472Z,4.23
2023-05-13T05:23:25.901Z,4.67
2023-05-13T05:26:07.827Z,4.60
2023-05-13T05:28:43.397Z,4.33
2023-05-13T05:31:12.428Z,4.70
2023-05-13T05:33:41.393Z,4.50
2023-05-13T05:36:10.743Z,4.83
2023-05-13T05:38:39.765Z,4.55
2023-05-13T05:41:08.906Z,4.73
2023-05-13T05:43:37.757Z,4.65
2023-05-13T05:46:08.012Z,4.33
2023-05-13T05:48:37.521Z,4.50
2023-05-13T05:51:06.764Z,4.53
2023-05-13T05:53:41.074Z,5.10
2023-05-13T05:56:11.089Z,4.80
2023-05-13T05:58:39.772Z,4.90
2023-05-13T06:01:09.821Z,4.80
2023-05-13T06:03:38.662Z,4.63
2023-05-13T06:06:07.602Z,4.28
2023-05-13T06:08:36.558Z,4.65
2023-05-13T06:11:05.442Z,4.40
2023-05-13T06:13:34.101Z,4.63
2023-05-13T06:16:02.888Z,4.60
2023-05-13T06:18:33.099Z,4.70
2023-05-13T06:21:01.887Z,4.20
2023-05-13T06:23:30.511Z,4.53
2023-05-13T06:26:00.117Z,4.72
2023-05-13T06:28:29.006Z,4.60
2023-05-13T06:30:57.671Z,4.25
2023-05-13T06:33:26.361Z,4.10
2023-05-13T06:35:56.518Z,4.20
2023-05-13T06:38:26.038Z,3.85
2023-05-13T06:40:58.507Z,3.90
2023-05-13T06:43:38.812Z,3.95
2023-05-13T06:46:24.118Z,3.90
2023-05-13T06:48:53.782Z,3.92
2023-05-13T06:51:24.259Z,4.30
2023-05-13T06:53:52.883Z,3.67
2023-05-13T06:56:22.983Z,4.18
2023-05-13T06:58:52.572Z,4.10
2023-05-13T07:01:21.446Z,4.30
2023-05-13T07:03:50.523Z,4.13
2023-05-13T07:06:18.928Z,4.10
2023-05-13T07:08:48.969Z,4.15
2023-05-13T07:11:17.395Z,4.10
2023-05-13T07:13:46.717Z,4.05
2023-05-13T07:16:15.585Z,3.80
2023-05-13T07:18:44.585Z,4.40
2023-05-13T07:21:14.250Z,4.00
2023-05-13T07:23:44.277Z,3.83
2023-05-13T07:26:14.269Z,3.88
2023-05-13T07:28:43.485Z,4.00
2023-05-13T07:31:12.242Z,3.88
2023-05-13T07:33:40.873Z,3.97
2023-05-13T07:36:09.610Z,3.33
2023-05-13T07:38:38.235Z,3.50
2023-05-13T07:41:07.274Z,3.67
2023-05-13T07:43:37.504Z,4.00
2023-05-13T07:46:06.246Z,4.03
2023-05-13T07:48:34.905Z,3.67
2023-05-13T07:51:03.661Z,3.88
2023-05-13T07:53:32.417Z,4.05
2023-05-13T07:56:00.758Z,3.63
2023-05-13T07:58:29.494Z,3.80
2023-05-13T08:00:59.902Z,3.72
2023-05-13T08:03:28.605Z,4.00
2023-05-13T08:05:57.313Z,3.60
2023-05-13T08:08:25.948Z,3.65
2023-05-13T08:10:54.613Z,3.90
2023-05-13T08:13:23.541Z,3.92
2023-05-13T08:15:52.653Z,3.65
2023-05-13T08:18:22.354Z,3.80
2023-05-13T08:20:51.368Z,3.50
2023-05-13T08:23:20.237Z,4.00
2023-05-13T08:25:48.912Z,3.80
2023-05-13T08:28:17.533Z,3.72
2023-05-13T08:30:46.157Z,3.45
2023-05-13T08:33:14.847Z,4.03
2023-05-13T08:35:44.948Z,3.50
2023-05-13T08:38:13.932Z,3.28
2023-05-13T08:40:44.033Z,3.20
2023-05-13T08:43:16.151Z,3.20
2023-05-13T08:45:48.773Z,3.17
2023-05-13T08:48:19.679Z,3.00
2023-05-13T08:50:50.729Z,2.80
2023-05-13T08:53:20.048Z,2.90
2023-05-13T08:55:49.666Z,3.20
2023-05-13T08:58:18.437Z,2.90
2023-05-13T09:00:48.213Z,3.00
2023-05-13T09:03:17.283Z,2.22
2023-05-13T09:05:46.478Z,2.80
2023-05-13T09:08:16.876Z,2.97
2023-05-13T09:10:45.648Z,2.67
2023-05-13T09:13:15.381Z,2.70
2023-05-13T09:15:44.221Z,2.53
2023-05-13T09:18:14.777Z,2.83
2023-05-13T09:20:45.105Z,2.35
2023-05-13T09:23:16.065Z,2.47
2023-05-13T09:25:45.473Z,2.35
2023-05-13T09:28:16.761Z,2.50
2023-05-13T09:30:46.808Z,2.22
2023-05-13T09:33:17.404Z,2.78
2023-05-13T09:35:52.914Z,2.92
2023-05-13T09:38:26.941Z,2.80
2023-05-13T09:40:57.097Z,2.63
2023-05-13T09:43:27.721Z,2.70
2023-05-13T09:46:06.578Z,2.70
2023-05-13T09:48:38.179Z,3.10
2023-05-13T09:51:07.084Z,2.90
2023-05-13T09:53:36.201Z,2.53
2023-05-13T09:56:04.939Z,2.45
2023-05-13T09:58:34.718Z,2.47
2023-05-13T10:01:05.959Z,2.70
2023-05-13T10:03:35.200Z,2.80
2023-05-13T10:06:06.747Z,2.60
2023-05-13T10:08:37.169Z,2.33
2023-05-13T10:11:07.452Z,2.40
2023-05-13T10:13:37.713Z,2.45
2023-05-13T10:16:09.429Z,2.38
2023-05-13T10:18:38.777Z,2.30
2023-05-13T10:21:07.894Z,2.53
2023-05-13T10:23:37.071Z,2.42
2023-05-13T10:26:07.759Z,2.33
2023-05-13T10:28:37.776Z,2.15
2023-05-13T10:31:07.772Z,2.50
2023-05-13T10:33:36.397Z,2.67
2023-05-13T10:36:26.050Z,2.13
2023-05-13T10:39:19.098Z,2.30
2023-05-13T10:42:39.160Z,2.22
2023-05-13T10:45:08.911Z,2.25
2023-05-13T10:47:39.652Z,2.17
2023-05-13T10:50:23.367Z,2.08
2023-05-13T10:52:56.110Z,2.28
2023-05-13T10:55:25.179Z,2.20
2023-05-13T10:58:12.770Z,1.90
2023-05-13T11:00:42.829Z,1.90
2023-05-13T11:03:29.584Z,2.08
2023-05-13T11:06:17.297Z,2.17
2023-05-13T11:08:48.415Z,1.83
2023-05-13T11:11:27.569Z,1.58
2023-05-13T11:13:57.744Z,1.70
2023-05-13T11:16:26.528Z,1.80
2023-05-13T11:18:56.550Z,1.52
2023-05-13T11:21:33.300Z,1.60
2023-05-13T11:24:08.106Z,3.42
2023-05-13T11:26:49.185Z,2.25
2023-05-13T11:29:28.919Z,1.70
2023-05-13T11:32:00.620Z,10.20
2023-05-13T11:34:31.600Z,4.90
2023-05-13T11:37:10.393Z,16.10
2023-05-13T11:39:41.952Z,2.22
2023-05-13T11:42:13.091Z,2.00
2023-05-13T11:44:47.892Z,6.53
2023-05-13T11:47:16.293Z,4.47
2023-05-13T11:49:47.806Z,1.90
2023-05-13T11:52:18.433Z,2.00
2023-05-13T11:54:49.685Z,1.67
2023-05-13T11:57:24.615Z,1.80
2023-05-13T11:59:57.015Z,1.77
2023-05-13T12:02:29.960Z,1.98
2023-05-13T12:05:05.496Z,1.80
2023-05-13T12:07:35.089Z,2.10
2023-05-13T12:10:05.935Z,2.00
2023-05-13T12:12:38.876Z,1.75
2023-05-13T12:15:11.719Z,1.90
2023-05-13T12:17:41.010Z,1.80
2023-05-13T12:20:15.154Z,1.88
2023-05-13T12:22:57.261Z,2.10
2023-05-13T12:25:45.181Z,1.80
2023-05-13T12:28:17.823Z,1.70
2023-05-13T12:30:52.609Z,1.90
2023-05-13T12:33:23.184Z,1.80
2023-05-13T12:35:54.458Z,2.00
2023-05-13T12:38:24.904Z,1.75
2023-05-13T12:40:54.804Z,1.73
2023-05-13T12:43:24.364Z,1.90
2023-05-13T12:45:55.792Z,1.67
2023-05-13T12:48:27.238Z,1.88
2023-05-13T12:50:58.037Z,1.70
2023-05-13T12:53:27.507Z,1.80
2023-05-13T12:55:56.208Z,1.95
2023-05-13T12:58:25.010Z,1.83
2023-05-13T13:00:53.657Z,1.60
2023-05-13T13:03:24.301Z,2.00
2023-05-13T13:05:53.338Z,1.50
2023-05-13T13:08:23.313Z,1.90
2023-05-13T13:10:52.275Z,1.75
2023-05-13T13:13:21.402Z,2.08
2023-05-13T13:15:50.069Z,2.05
2023-05-13T13:18:19.331Z,1.70
2023-05-13T13:20:48.062Z,1.60
2023-05-13T13:23:16.696Z,1.60
2023-05-13T13:25:46.842Z,1.50
2023-05-13T13:28:15.927Z,1.80
2023-05-13T13:30:46.801Z,1.85
2023-05-13T13:33:17.204Z,1.70
2023-05-13T13:35:48.263Z,1.50
2023-05-13T13:38:17.220Z,1.60
2023-05-13T13:40:46.883Z,1.70
2023-05-13T13:43:15.512Z,1.50
2023-05-13T13:45:43.917Z,1.73
2023-05-13T13:48:12.659Z,1.85
2023-05-13T13:50:41.391Z,1.50
2023-05-13T13:53:09.699Z,1.70
2023-05-13T13:55:38.329Z,1.55
2023-05-13T13:58:08.301Z,1.42
2023-05-13T14:00:37.175Z,1.60
2023-05-13T14:03:05.942Z,1.55
2023-05-13T14:05:34.777Z,1.80
2023-05-13T14:08:03.393Z,1.70
2023-05-13T14:10:32.033Z,1.45
2023-05-13T14:13:00.939Z,1.63
2023-05-13T14:15:31.550Z,1.50
2023-05-13T14:18:00.516Z,1.40
2023-05-13T14:20:30.132Z,1.70
2023-05-13T14:22:58.733Z,1.40
2023-05-13T14:25:27.827Z,1.50
2023-05-13T14:27:56.509Z,1.40
2023-05-13T14:30:27.680Z,1.70
2023-05-13T14:32:57.711Z,1.65
2023-05-13T14:35:26.372Z,1.80
2023-05-13T14:37:55.266Z,1.70
2023-05-13T14:40:24.579Z,2.17
2023-05-13T14:42:53.330Z,1.70
2023-05-13T14:45:22.781Z,1.73
2023-05-13T14:47:53.894Z,1.80
2023-05-13T14:50:24.582Z,2.00
2023-05-13T14:52:53.307Z,2.30
2023-05-13T14:55:22.127Z,1.80
2023-05-13T14:57:51.010Z,1.70
2023-05-13T15:00:20.046Z,1.55
2023-05-13T15:02:48.859Z,1.70
2023-05-13T15:05:17.984Z,1.73
2023-05-13T15:07:50.452Z,1.50
2023-05-13T15:10:18.929Z,1.50
2023-05-13T15:12:47.568Z,1.80
2023-05-13T15:15:16.208Z,1.60
2023-05-13T15:17:45.080Z,1.30
2023-05-13T15:20:14.088Z,1.20
2023-05-13T15:22:42.745Z,1.48
2023-05-13T15:25:13.148Z,0.90
2023-05-13T15:27:42.929Z,0.93
2023-05-13T15:30:12.412Z,1.10
2023-05-13T15:32:41.191Z,1.10
2023-05-13T15:35:10.540Z,1.08
2023-05-13T15:37:39.559Z,1.02
2023-05-13T15:40:09.798Z,0.90
2023-05-13T15:42:39.498Z,1.10
2023-05-13T15:45:09.596Z,0.90
2023-05-13T15:47:38.404Z,1.20
2023-05-13T15:50:08.131Z,0.77
2023-05-13T15:52:36.750Z,1.00
2023-05-13T15:55:06.817Z,0.90
2023-05-13T15:57:35.156Z,0.93
2023-05-13T16:00:06.104Z,1.35
2023-05-13T16:02:39.053Z,1.33
2023-05-13T16:05:08.705Z,1.10
2023-05-13T16:07:37.341Z,1.20
2023-05-13T16:10:07.473Z,1.60
2023-05-13T16:12:36.078Z,1.40
2023-05-13T16:15:07.513Z,1.20
2023-05-13T16:17:36.389Z,1.30
2023-05-13T16:20:05.601Z,1.40
2023-05-13T16:22:37.965Z,1.30
2023-05-13T16:25:08.865Z,1.20
2023-05-13T16:27:38.856Z,1.40
2023-05-13T16:30:10.425Z,1.50
2023-05-13T16:32:39.115Z,1.30
2023-05-13T16:35:10.056Z,1.10
2023-05-13T16:37:39.018Z,1.20
2023-05-13T16:40:09.593Z,1.02
2023-05-13T16:42:38.268Z,1.00
2023-05-13T16:45:10.259Z,0.90
2023-05-13T16:47:38.658Z,0.85
2023-05-13T16:50:09.113Z,0.90
2023-05-13T16:52:37.859Z,1.23
2023-05-13T16:55:07.333Z,1.00
2023-05-13T16:57:35.927Z,1.00
2023-05-13T17:00:04.587Z,1.02
2023-05-13T17:02:34.617Z,1.30
2023-05-13T17:05:03.387Z,1.10
2023-05-13T17:07:32.266Z,1.30
2023-05-13T17:10:00.594Z,1.20
2023-05-13T17:12:29.215Z,1.48
2023-05-13T17:14:57.916Z,1.60
2023-05-13T17:17:26.422Z,1.40
2023-05-13T17:19:57.694Z,1.25
2023-05-13T17:22:26.477Z,1.65
2023-05-13T17:24:55.235Z,1.55
2023-05-13T17:27:23.880Z,1.42
2023-05-13T17:29:52.535Z,1.45
2023-05-13T17:32:22.266Z,1.80
2023-05-13T17:34:51.347Z,1.67
2023-05-13T17:37:21.071Z,1.70
2023-05-13T17:39:50.401Z,1.55
2023-05-13T17:42:19.080Z,1.80
2023-05-13T17:44:47.504Z,1.90
2023-05-13T17:47:16.372Z,1.92
2023-05-13T17:49:45.032Z,2.30
2023-05-13T17:52:13.905Z,2.08
2023-05-13T17:54:43.875Z,2.05
2023-05-13T17:57:12.290Z,2.30
2023-05-13T17:59:40.903Z,2.10
2023-05-13T18:02:09.679Z,2.10
2023-05-13T18:04:41.054Z,2.10
2023-05-13T18:07:10.341Z,2.40
2023-05-13T18:09:38.998Z,2.20
2023-05-13T18:12:10.273Z,2.28
2023-05-13T18:14:39.068Z,2.67
2023-05-13T18:17:08.141Z,2.20
2023-05-13T18:19:36.857Z,2.55
2023-05-13T18:22:08.644Z,2.42
2023-05-13T18:24:38.347Z,2.38
2023-05-13T18:27:09.678Z,2.60
2023-05-13T18:29:38.419Z,2.45
2023-05-13T18:32:07.672Z,2.72
2023-05-13T18:34:37.526Z,2.90
2023-05-13T18:37:07.203Z,2.70
2023-05-13T18:39:36.040Z,3.15
2023-05-13T18:42:05.181Z,3.13
2023-05-13T18:44:35.319Z,3.40
2023-05-13T18:47:03.674Z,3.47
2023-05-13T18:49:33.242Z,3.53
2023-05-13T18:52:01.822Z,3.50
2023-05-13T18:54:30.659Z,3.25
2023-05-13T18:56:59.747Z,3.33
2023-05-13T18:59:28.241Z,3.65
2023-05-13T19:01:59.756Z,3.80
2023-05-13T19:04:28.840Z,4.00
2023-05-13T19:06:57.602Z,3.80
2023-05-13T19:09:26.299Z,4.25
2023-05-13T19:11:55.345Z,4.43
2023-05-13T19:14:23.697Z,4.45
2023-05-13T19:16:52.462Z,4.32
2023-05-13T19:19:22.996Z,4.45
2023-05-13T19:21:52.113Z,4.00
2023-05-13T19:24:20.773Z,4.32
2023-05-13T19:26:51.171Z,4.30
2023-05-13T19:29:19.537Z,4.55
2023-05-13T19:31:48.259Z,4.57
2023-05-13T19:34:17.041Z,5.18
2023-05-13T19:36:48.194Z,5.82
2023-05-13T19:39:16.892Z,5.70
2023-05-13T19:41:47.254Z,5.97
2023-05-13T19:44:16.381Z,6.60
2023-05-13T19:46:44.947Z,6.20
2023-05-13T19:49:13.633Z,6.75
2023-05-13T19:51:42.405Z,6.88
2023-05-13T19:54:13.669Z,6.55
2023-05-13T19:56:42.623Z,6.72
2023-05-13T19:59:11.339Z,6.88
2023-05-13T20:01:40.430Z,6.32
2023-05-13T20:04:10.011Z,6.70
2023-05-13T20:06:38.844Z,7.53
2023-05-13T20:09:08.511Z,6.70
2023-05-13T20:11:38.271Z,7.38
2023-05-13T20:14:06.882Z,7.97
2023-05-13T20:16:36.045Z,8.55
2023-05-13T20:19:04.919Z,7.78
2023-05-13T20:21:33.617Z,8.05
2023-05-13T20:24:02.100Z,7.80
2023-05-13T20:26:34.639Z,7.82
2023-05-13T20:29:05.210Z,7.95
2023-05-13T20:31:33.923Z,8.30
2023-05-13T20:34:03.385Z,7.78
2023-05-13T20:36:31.946Z,8.52
2023-05-13T20:39:00.555Z,7.97
2023-05-13T20:41:30.673Z,7.75
2023-05-13T20:43:59.262Z,8.25
2023-05-13T20:46:28.987Z,8.10
2023-05-13T20:48:58.156Z,8.48
2023-05-13T20:51:26.932Z,8.25
2023-05-13T20:53:55.648Z,7.72
2023-05-13T20:56:25.727Z,8.25
2023-05-13T20:58:54.738Z,8.45
2023-05-13T21:01:23.464Z,8.95
2023-05-13T21:03:53.647Z,7.55
2023-05-13T21:06:22.405Z,7.95
2023-05-13T21:08:51.326Z,8.27
2023-05-13T21:11:19.700Z,8.50
2023-05-13T21:13:48.491Z,8.32
2023-05-13T21:16:17.274Z,7.85
2023-05-13T21:18:46.029Z,7.97
2023-05-13T21:21:16.341Z,8.35
2023-05-13T21:23:45.678Z,7.40
2023-05-13T21:26:14.742Z,7.60
2023-05-13T21:28:43.420Z,8.00
2023-05-13T21:31:12.052Z,7.75
2023-05-13T21:33:40.793Z,7.75
2023-05-13T21:36:09.697Z,7.57
2023-05-13T21:38:39.410Z,7.60
2023-05-13T21:41:08.174Z,8.02
2023-05-13T21:43:36.581Z,8.07
2023-05-13T21:46:06.549Z,8.73
2023-05-13T21:48:35.336Z,8.02
2023-05-13T21:51:04.397Z,8.13
2023-05-13T21:53:33.931Z,7.85
2023-05-13T21:56:03.874Z,7.75
2023-05-13T21:58:32.593Z,8.23
2023-05-13T22:01:01.862Z,8.55
2023-05-13T22:03:30.626Z,8.00
2023-05-13T22:05:59.544Z,8.15
2023-05-13T22:08:28.180Z,7.88
2023-05-13T22:10:56.841Z,8.43
2023-05-13T22:13:27.115Z,8.82
2023-05-13T22:15:55.907Z,9.20
2023-05-13T22:18:24.879Z,8.68
2023-05-13T22:20:53.376Z,8.60
2023-05-13T22:23:22.074Z,8.82
2023-05-13T22:25:50.830Z,8.57
2023-05-13T22:28:19.506Z,8.30
2023-05-13T22:30:51.404Z,8.63
2023-05-13T22:33:20.177Z,9.18
2023-05-13T22:35:48.868Z,8.95
2023-05-13T22:38:17.449Z,9.15
2023-05-13T22:40:46.015Z,9.18
2023-05-13T22:43:15.681Z,8.60
2023-05-13T22:45:44.022Z,9.00
2023-05-13T22:48:13.896Z,9.10
2023-05-13T22:50:42.683Z,8.80
2023-05-13T22:53:11.868Z,9.02
2023-05-13T22:55:41.019Z,8.77
2023-05-13T22:58:09.386Z,10.07
2023-05-13T23:00:38.057Z,9.77
2023-05-13T23:03:06.493Z,9.23
2023-05-13T23:05:36.549Z,9.13
2023-05-13T23:08:05.422Z,9.30
2023-05-13T23:10:34.112Z,9.47
2023-05-13T23:13:05.664Z,9.02
2023-05-13T23:15:36.008Z,9.07
2023-05-13T23:18:04.871Z,9.18
2023-05-13T23:20:34.899Z,9.80
2023-05-13T23:23:03.629Z,9.17
2023-05-13T23:25:32.533Z,9.23
2023-05-13T23:28:01.020Z,9.80
2023-05-13T23:30:29.740Z,9.87
2023-05-13T23:32:58.596Z,10.40
2023-05-13T23:35:27.305Z,10.10
2023-05-13T23:37:57.165Z,9.87
2023-05-13T23:40:25.951Z,10.50
2023-05-13T23:42:54.831Z,10.33
2023-05-13T23:45:23.732Z,10.17
2023-05-13T23:47:52.435Z,10.20
2023-05-13T23:50:21.442Z,10.40
2023-05-13T23:52:51.290Z,10.57
2023-05-13T23:55:21.516Z,9.93
2023-05-13T23:57:50.325Z,10.27
